Time;durP1;ratioP1;P1;durP2;ratioP2;P2;SDS_P1;SDS_P2;PMS_P1;PMS_P2;Temp;Humidity;BMP_temperature;BMP_pressure;BME280_temperature;BME280_humidity;BME280_pressure;Samples;Min_cycle;Max_cycle;Signal;HPM_P1;HPM_P2
2022/10/04 00:00:29;;;;;;;39.97;11.60;;;;;;;7.54;85.90;99072.84;7385460;19;20020;-76
2022/10/04 00:03:05;;;;;;;31.58;10.95;;;;;;;7.59;85.62;99075.13;7389486;19;20010;-76
2022/10/04 00:05:32;;;;;;;23.70;11.25;;;;;;;7.65;85.48;99079.91;7386943;19;20019;-76
2022/10/04 00:08:11;;;;;;;58.53;13.02;;;;;;;7.63;85.41;99076.53;7389060;19;20014;-76
2022/10/04 00:10:37;;;;;;;29.48;11.65;;;;;;;7.68;85.50;99069.13;7386635;19;20313;-75
2022/10/04 00:13:06;;;;;;;60.25;12.70;;;;;;;7.75;85.53;99059.78;7385561;19;20750;-75
2022/10/04 00:15:36;;;;;;;20.05;10.48;;;;;;;7.84;85.06;99060.84;7381580;19;20117;-75
2022/10/04 00:18:09;;;;;;;37.35;11.75;;;;;;;7.87;84.85;99061.47;7388696;19;20015;-76
2022/10/04 00:20:52;;;;;;;37.15;11.98;;;;;;;7.83;85.25;99062.66;7386073;19;20019;-76
2022/10/04 00:23:21;;;;;;;35.65;12.80;;;;;;;7.76;85.47;99071.97;7385924;19;20350;-76
2022/10/04 00:25:52;;;;;;;59.10;12.25;;;;;;;7.74;85.62;99063.38;7384849;19;20465;-76
2022/10/04 00:28:19;;;;;;;43.47;12.18;;;;;;;7.91;85.74;99065.50;7385621;19;20027;-76
2022/10/04 00:31:06;;;;;;;28.38;10.77;;;;;;;8.10;85.68;99050.88;7382405;19;20021;-76
2022/10/04 00:33:41;;;;;;;52.47;11.40;;;;;;;8.21;85.50;99044.72;7386977;19;20116;-76
2022/10/04 00:36:23;;;;;;;38.25;12.15;;;;;;;8.22;86.19;99052.53;7385807;19;20011;-76
2022/10/04 00:39:08;;;;;;;89.70;12.82;;;;;;;8.21;85.88;99052.63;7383083;19;20030;-76
2022/10/04 00:41:41;;;;;;;67.63;11.32;;;;;;;8.21;85.73;99055.28;7386723;19;20019;-76
2022/10/04 00:44:20;;;;;;;92.65;14.85;;;;;;;8.09;85.72;99057.09;7385660;19;20022;-76
2022/10/04 00:46:48;;;;;;;68.38;12.55;;;;;;;8.03;85.67;99060.22;7384940;19;20007;-76
2022/10/04 00:49:19;;;;;;;19.48;9.52;;;;;;;8.09;85.59;99051.84;7384389;19;20047;-76
2022/10/04 00:52:13;;;;;;;27.23;10.45;;;;;;;8.18;85.09;99052.88;7380730;19;20011;-75
2022/10/04 00:54:43;;;;;;;35.75;10.98;;;;;;;8.13;85.72;99045.34;7383235;19;20026;-75
2022/10/04 00:57:21;;;;;;;89.40;12.77;;;;;;;8.11;85.85;99057.84;7383897;19;20048;-75
2022/10/04 01:00:02;;;;;;;36.40;10.95;;;;;;;8.26;86.00;99042.56;7383414;19;20035;-76
2022/10/04 01:02:34;;;;;;;44.10;10.50;;;;;;;8.30;85.71;99039.56;7391506;19;20014;-75
2022/10/04 01:05:12;;;;;;;40.03;10.30;;;;;;;8.35;85.74;99037.38;7385743;19;20576;-75
2022/10/04 01:07:42;;;;;;;64.55;11.27;;;;;;;8.35;85.75;99037.38;7385177;19;20034;-75
2022/10/04 01:10:13;;;;;;;45.10;10.70;;;;;;;8.29;85.64;99032.63;7389159;19;20423;-75
2022/10/04 01:12:55;;;;;;;61.63;11.15;;;;;;;8.33;85.41;99027.91;7390651;19;20469;-76
2022/10/04 01:15:33;;;;;;;68.88;10.05;;;;;;;8.26;85.09;99032.84;7390890;19;20051;-75
2022/10/04 01:18:18;;;;;;;28.67;9.43;;;;;;;8.20;85.58;99024.63;7391896;19;20019;-75
2022/10/04 01:20:51;;;;;;;94.45;12.15;;;;;;;8.04;85.44;99032.91;7387367;19;20549;-75
2022/10/04 01:23:42;;;;;;;123.72;12.35;;;;;;;7.82;85.44;99037.28;7385365;19;20481;-75
2022/10/04 01:26:33;;;;;;;109.07;13.15;;;;;;;7.84;86.12;99032.69;7389175;19;20396;-75
2022/10/04 01:29:18;;;;;;;62.60;9.30;;;;;;;7.92;86.26;99024.19;7391656;19;20022;-75
2022/10/04 01:31:46;;;;;;;83.18;11.70;;;;;;;8.01;85.66;99027.91;7388241;19;20011;-75
2022/10/04 01:34:19;;;;;;;61.38;10.35;;;;;;;8.11;85.83;99028.84;7391691;19;20014;-75
2022/10/04 01:36:47;;;;;;;88.45;11.05;;;;;;;8.10;85.43;99021.88;7388141;19;20398;-75
2022/10/04 01:39:15;;;;;;;84.40;9.52;;;;;;;8.00;85.09;99027.03;7383792;19;20071;-75
2022/10/04 01:41:46;;;;;;;115.38;12.23;;;;;;;7.96;85.32;99014.25;7388350;19;20833;-75
2022/10/04 01:44:38;;;;;;;108.57;12.25;;;;;;;7.98;85.25;99009.69;7389738;19;20022;-75
2022/10/04 01:47:12;;;;;;;57.65;10.10;;;;;;;8.03;85.61;98999.59;7387349;19;20026;-75
2022/10/04 01:49:41;;;;;;;56.50;8.65;;;;;;;8.10;85.99;99008.69;7388505;19;20523;-75
2022/10/04 01:52:14;;;;;;;115.22;11.10;;;;;;;8.16;85.08;99002.91;7390869;19;20022;-75
2022/10/04 01:54:47;;;;;;;31.17;7.80;;;;;;;8.20;84.98;99000.88;7384462;19;20373;-75
2022/10/04 01:57:17;;;;;;;35.15;8.40;;;;;;;8.21;84.80;98987.56;7386499;19;20043;-75
2022/10/04 01:59:56;;;;;;;15.65;7.88;;;;;;;8.21;85.04;98992.00;7386156;19;20011;-76
2022/10/04 02:02:25;;;;;;;39.42;10.32;;;;;;;8.08;85.02;98977.22;7389646;19;20411;-76
2022/10/04 02:04:55;;;;;;;91.60;10.38;;;;;;;8.09;84.95;98984.16;7389502;19;20046;-76
2022/10/04 02:07:22;;;;;;;27.70;9.15;;;;;;;7.95;85.19;98986.22;7387067;19;20347;-76
2022/10/04 02:09:54;;;;;;;24.85;8.95;;;;;;;7.98;85.28;98988.59;7385767;19;20026;-76
2022/10/04 02:12:20;;;;;;;41.72;10.00;;;;;;;7.95;85.54;98980.94;7391749;19;20011;-76
2022/10/04 02:14:51;;;;;;;19.48;8.45;;;;;;;7.92;85.60;98984.66;7389132;19;20022;-75
2022/10/04 02:17:26;;;;;;;49.22;10.10;;;;;;;7.85;85.57;98984.34;7387595;19;20018;-76
2022/10/04 02:19:53;;;;;;;66.90;11.48;;;;;;;7.87;85.00;98973.66;7386623;19;20140;-76
2022/10/04 02:22:22;;;;;;;28.45;8.20;;;;;;;7.80;85.38;98981.25;7390415;19;20359;-75
2022/10/04 02:24:49;;;;;;;42.40;9.38;;;;;;;7.87;85.23;98984.19;7385851;19;20042;-76
2022/10/04 02:27:16;;;;;;;20.25;8.02;;;;;;;7.80;85.34;98968.06;7382509;19;21731;-75
2022/10/04 02:29:43;;;;;;;32.97;7.53;;;;;;;7.70;85.73;98969.75;7382824;19;20015;-75
2022/10/04 02:34:56;;;;;;;34.25;7.90;;;;;;;7.48;85.22;98978.53;7387710;19;20445;-75
2022/10/04 02:37:25;;;;;;;54.90;9.00;;;;;;;7.42;85.35;98977.22;7387104;19;20040;-76
2022/10/04 02:40:13;;;;;;;32.72;7.53;;;;;;;7.29;85.40;98987.03;7386915;19;20475;-76
2022/10/04 02:43:21;;;;;;;49.13;9.20;;;;;;;7.15;85.22;98976.75;7386302;19;20022;-75
2022/10/04 02:46:16;;;;;;;19.48;9.02;;;;;;;7.20;85.64;98979.88;7385637;19;20014;-75
2022/10/04 02:48:44;;;;;;;23.27;8.90;;;;;;;7.32;85.65;98978.91;7386345;19;20044;-75
2022/10/04 02:51:17;;;;;;;17.73;8.20;;;;;;;7.46;85.84;98983.09;7385354;19;20022;-76
2022/10/04 02:53:56;;;;;;;27.95;10.35;;;;;;;7.52;85.86;98974.69;7388854;19;20011;-76
2022/10/04 02:56:29;;;;;;;42.22;8.80;;;;;;;7.44;85.57;98980.56;7386787;19;20349;-76
2022/10/04 02:59:00;;;;;;;20.95;7.90;;;;;;;7.23;85.42;98977.81;7386327;19;20077;-76
2022/10/04 03:01:39;;;;;;;27.15;9.13;;;;;;;7.11;85.56;98965.63;7383538;19;20735;-76
2022/10/04 03:04:10;;;;;;;18.63;7.82;;;;;;;7.33;85.51;98975.31;7386167;19;20006;-76
2022/10/04 03:06:38;;;;;;;23.13;8.27;;;;;;;7.32;85.82;98973.66;7386250;19;20055;-76
2022/10/04 03:09:04;;;;;;;24.42;9.32;;;;;;;7.28;85.24;98972.19;7386104;19;20052;-76
2022/10/04 03:11:37;;;;;;;24.83;7.80;;;;;;;7.26;85.17;98968.84;7383847;19;20018;-76
2022/10/04 03:14:08;;;;;;;21.25;8.50;;;;;;;7.16;85.20;98965.25;7386118;19;20038;-76
2022/10/04 03:16:41;;;;;;;23.40;8.27;;;;;;;7.06;85.18;98964.28;7384411;19;20026;-76
2022/10/04 03:19:08;;;;;;;;;;;;;;;7.15;85.67;98963.59;7381397;19;20119;-76
2022/10/04 03:21:35;;;;;;;46.15;8.65;;;;;;;7.26;85.83;98950.44;7384528;19;19915;-75
2022/10/04 03:24:03;;;;;;;61.60;10.90;;;;;;;7.30;85.76;98951.88;7387287;19;20038;-75
2022/10/04 03:26:41;;;;;;;31.98;10.00;;;;;;;7.42;86.07;98940.34;7385712;19;20031;-76
2022/10/04 03:29:10;;;;;;;52.40;9.82;;;;;;;7.46;86.22;98939.16;7381594;19;20015;-76
2022/10/04 03:31:43;;;;;;;131.82;12.27;;;;;;;7.58;85.94;98941.78;7384317;19;20105;-76
2022/10/04 03:34:20;;;;;;;52.35;9.77;;;;;;;7.60;86.18;98937.22;7382523;19;20022;-75
2022/10/04 03:36:48;;;;;;;41.10;9.35;;;;;;;7.67;86.26;98948.94;7382421;19;20018;-76
2022/10/04 03:39:23;;;;;;;37.90;8.70;;;;;;;7.63;85.59;98947.50;7383643;19;20461;-76
2022/10/04 03:41:52;;;;;;;92.63;11.07;;;;;;;7.43;85.94;98949.94;7384920;19;20018;-76
2022/10/04 03:44:20;;;;;;;60.83;8.70;;;;;;;7.46;85.62;98947.06;7387113;19;20019;-77
2022/10/04 03:46:47;;;;;;;66.45;9.45;;;;;;;7.51;86.04;98940.59;7391028;19;20397;-76
2022/10/04 03:49:17;;;;;;;62.13;9.63;;;;;;;7.65;86.00;98945.59;7388312;19;20398;-76
2022/10/04 03:51:47;;;;;;;64.22;9.75;;;;;;;7.67;86.05;98941.03;7385920;19;20786;-76
2022/10/04 03:54:22;;;;;;;64.60;9.82;;;;;;;7.62;85.81;98936.13;7389847;19;20018;-76
2022/10/04 03:56:50;;;;;;;83.05;10.25;;;;;;;7.64;85.42;98934.22;7390653;19;20368;-76
2022/10/04 03:59:17;;;;;;;84.53;8.55;;;;;;;7.50;85.30;98938.91;7388789;19;20019;-76
2022/10/04 04:02:01;;;;;;;170.35;12.32;;;;;;;7.11;85.13;98954.25;7392248;19;20014;-77
2022/10/04 04:04:52;;;;;;;35.30;6.13;;;;;;;7.08;85.03;98960.59;7392816;19;20018;-77
2022/10/04 04:07:24;;;;;;;102.82;9.32;;;;;;;7.08;85.02;98957.13;7387989;19;20014;-77
2022/10/04 04:09:58;;;;;;;60.55;7.25;;;;;;;7.15;85.94;98950.44;7386311;19;20503;-77
2022/10/04 04:12:39;;;;;;;24.98;8.07;;;;;;;7.30;86.13;98951.88;7392086;19;20048;-77
2022/10/04 04:15:09;;;;;;;27.17;7.63;;;;;;;7.38;86.26;98941.56;7389039;19;20399;-77
2022/10/04 04:17:45;;;;;;;40.97;7.78;;;;;;;7.43;86.07;98949.94;7390804;19;20039;-77
2022/10/04 04:20:33;;;;;;;60.53;9.18;;;;;;;7.45;85.84;98937.50;7387694;19;20022;-77
2022/10/04 04:23:03;;;;;;;48.00;7.57;;;;;;;7.39;86.08;98931.88;7388126;19;20018;-76
2022/10/04 04:25:33;;;;;;;63.08;8.73;;;;;;;7.33;85.95;98916.56;7384364;19;20021;-77
2022/10/04 04:28:20;;;;;;;40.33;6.65;;;;;;;7.37;86.19;98924.13;7386343;19;20010;-76
2022/10/04 04:30:48;;;;;;;78.47;8.25;;;;;;;7.31;85.54;98921.94;7381415;19;20015;-77
2022/10/04 04:33:28;;;;;;;24.55;7.10;;;;;;;7.21;85.74;98932.38;7384086;19;20797;-76
2022/10/04 04:36:02;;;;;;;20.75;6.82;;;;;;;7.30;85.97;98937.88;7386355;19;20014;-77
2022/10/04 04:38:30;;;;;;;46.92;7.72;;;;;;;7.17;85.82;98930.94;7384510;19;20038;-77
2022/10/04 04:41:07;;;;;;;43.15;7.22;;;;;;;7.10;85.99;98937.63;7379640;19;20044;-76
2022/10/04 04:43:33;;;;;;;36.50;7.03;;;;;;;7.28;85.44;98945.88;7382883;19;20047;-76
2022/10/04 04:46:00;;;;;;;23.75;7.65;;;;;;;7.33;84.95;98943.72;7385362;19;20014;-77
2022/10/04 04:48:49;;;;;;;7.38;5.72;;;;;;;7.36;84.33;98946.09;7388086;19;20343;-77
2022/10/04 04:51:23;;;;;;;19.48;5.78;;;;;;;7.35;84.10;98943.63;7384097;19;20022;-77
2022/10/04 04:53:51;;;;;;;49.35;7.68;;;;;;;7.35;84.81;98946.25;7386964;19;20072;-77
2022/10/04 04:56:22;;;;;;;65.38;10.23;;;;;;;7.25;84.64;98948.75;7385133;19;20022;-77
2022/10/04 04:58:50;;;;;;;50.60;9.02;;;;;;;7.20;84.75;98948.28;7366049;19;20014;-77
2022/10/04 05:01:29;;;;;;;45.35;7.28;;;;;;;7.20;84.35;98943.84;7382418;19;20023;-77
2022/10/04 05:04:05;;;;;;;36.20;6.60;;;;;;;7.16;84.17;98955.59;7386710;19;20022;-78
2022/10/04 05:06:33;;;;;;;56.80;7.80;;;;;;;6.93;84.54;98957.38;7387739;19;20015;-77
2022/10/04 05:09:00;;;;;;;59.42;8.45;;;;;;;6.81;84.88;98955.66;7382759;19;20022;-77
2022/10/04 05:11:34;;;;;;;23.27;6.55;;;;;;;6.85;84.76;98964.19;7383141;19;20054;-77
2022/10/04 05:14:04;;;;;;;24.48;6.25;;;;;;;6.83;85.62;98969.53;7385462;19;20054;-77
2022/10/04 05:16:43;;;;;;;65.88;8.25;;;;;;;6.86;85.17;98976.38;7382483;19;20018;-77
2022/10/04 05:19:14;;;;;;;79.22;7.00;;;;;;;6.65;84.96;98982.28;7387825;19;20018;-77
2022/10/04 05:21:44;;;;;;;41.15;6.70;;;;;;;6.59;85.04;98974.88;7382137;19;20367;-77
2022/10/04 05:24:39;;;;;;;29.80;6.15;;;;;;;6.63;85.48;98975.47;7378954;19;20011;-77
2022/10/04 05:27:12;;;;;;;34.65;5.63;;;;;;;6.62;85.28;98977.28;7379656;19;20014;-77
2022/10/04 05:29:54;;;;;;;43.10;5.93;;;;;;;6.53;84.91;98976.19;7375356;19;20015;-77
2022/10/04 05:32:26;;;;;;;28.35;6.32;;;;;;;6.56;84.82;98981.22;7372293;19;20014;-77
2022/10/04 05:34:53;;;;;;;32.97;5.87;;;;;;;6.49;84.77;98979.16;7376358;19;20111;-77
2022/10/04 05:37:33;;;;;;;43.20;7.63;;;;;;;6.48;85.44;98980.94;7378564;19;20370;-77
2022/10/04 05:40:12;;;;;;;48.03;7.23;;;;;;;6.58;85.45;98975.81;7381234;19;20039;-77
2022/10/04 05:42:46;;;;;;;18.15;6.57;;;;;;;6.65;86.06;98978.84;7385162;19;20007;-77
2022/10/04 05:45:17;;;;;;;22.13;7.13;;;;;;;6.84;85.79;98975.63;7378996;19;20018;-77
2022/10/04 05:47:47;;;;;;;24.77;7.33;;;;;;;6.95;86.02;98976.50;7386400;19;20018;-77
2022/10/04 05:50:16;;;;;;;12.70;5.93;;;;;;;7.04;86.09;98965.25;7386700;19;20014;-77
2022/10/04 05:52:46;;;;;;;18.17;6.72;;;;;;;7.10;86.03;98968.38;7389342;19;20014;-77
2022/10/04 05:55:22;;;;;;;18.50;6.50;;;;;;;7.31;85.22;98971.97;7388815;19;20489;-77
2022/10/04 05:58:17;;;;;;;42.47;7.57;;;;;;;7.12;85.16;98964.66;7391368;19;20407;-77
2022/10/04 06:00:49;;;;;;;14.10;6.80;;;;;;;7.20;85.24;98964.06;7388371;19;20115;-77
2022/10/04 06:03:26;;;;;;;21.30;7.05;;;;;;;7.06;85.51;98954.63;7388831;19;20024;-77
2022/10/04 06:06:00;;;;;;;25.30;8.27;;;;;;;6.98;85.52;98957.84;7384610;19;20039;-77
2022/10/04 06:08:38;;;;;;;34.75;9.88;;;;;;;6.97;85.83;98953.53;7387494;19;20785;-77
2022/10/04 06:11:29;;;;;;;17.52;9.65;;;;;;;7.13;86.09;98958.44;7385391;19;20428;-77
2022/10/04 06:14:20;;;;;;;15.35;9.23;;;;;;;7.43;85.98;98962.28;7388367;19;20043;-77
2022/10/04 06:17:12;;;;;;;14.07;8.88;;;;;;;7.59;85.90;98954.00;7392072;19;20015;-77
2022/10/04 06:20:24;;;;;;;27.65;9.70;;;;;;;7.70;85.62;98949.53;7385362;19;20056;-77
2022/10/04 06:22:58;;;;;;;17.42;9.00;;;;;;;7.74;85.61;98952.78;7383995;19;20011;-77
2022/10/04 06:25:29;;;;;;;13.57;9.10;;;;;;;7.69;85.40;98952.31;7386875;19;20047;-77
2022/10/04 06:28:02;;;;;;;13.05;9.35;;;;;;;7.69;85.54;98954.94;7390226;19;20034;-77
2022/10/04 06:30:39;;;;;;;17.10;8.93;;;;;;;7.59;85.55;98964.53;7387003;19;20046;-77
2022/10/04 06:33:25;;;;;;;13.43;8.43;;;;;;;7.43;85.63;98971.00;7388511;19;20032;-77
2022/10/04 06:36:15;;;;;;;13.95;9.10;;;;;;;7.77;85.88;98970.94;7386839;19;20031;-77
2022/10/04 06:38:48;;;;;;;10.80;8.60;;;;;;;8.02;85.84;98971.59;7384956;19;20018;-77
2022/10/04 06:41:33;;;;;;;;;;;;;;;8.18;85.57;98977.28;7385657;19;20018;-80
2022/10/04 06:44:27;;;;;;;11.65;8.93;;;;;;;8.24;85.30;98971.53;7388548;19;19944;-79
2022/10/04 06:46:57;;;;;;;14.60;9.10;;;;;;;8.35;85.01;98966.19;7396896;19;20137;-79
2022/10/04 06:49:38;;;;;;;17.73;9.05;;;;;;;8.53;84.80;98963.00;7392616;19;20014;-79
2022/10/04 06:52:30;;;;;;;11.35;9.02;;;;;;;8.64;84.73;98970.88;7389287;19;20932;-79
2022/10/04 06:55:13;;;;;;;13.00;9.05;;;;;;;8.66;84.18;98976.00;7386650;19;20031;-80
2022/10/04 06:58:07;;;;;;;13.25;10.00;;;;;;;8.95;84.08;98971.75;7387638;19;20029;-80
2022/10/04 07:00:40;;;;;;;10.30;8.38;;;;;;;8.84;83.79;98973.63;7391912;19;20018;-80
2022/10/04 07:03:19;;;;;;;11.25;8.52;;;;;;;8.98;83.91;98982.06;7395416;19;20026;-80
2022/10/04 07:05:50;;;;;;;10.50;8.90;;;;;;;9.20;83.11;98977.56;7391034;19;20006;-80
2022/10/04 07:08:32;;;;;;;12.93;8.60;;;;;;;9.30;82.66;98980.25;7394639;19;20010;-80
2022/10/04 07:11:04;;;;;;;12.43;9.37;;;;;;;9.33;82.73;98982.63;7386773;19;20010;-80
2022/10/04 07:14:00;;;;;;;12.02;9.43;;;;;;;9.45;82.84;98985.03;7389479;19;20018;-78
2022/10/04 07:16:38;;;;;;;10.32;8.88;;;;;;;9.43;82.42;98980.88;7392418;19;20014;-80
2022/10/04 07:19:14;;;;;;;10.52;7.65;;;;;;;9.60;82.83;98982.84;7390408;19;20383;-79
2022/10/04 07:22:04;;;;;;;10.48;8.02;;;;;;;9.76;82.84;98981.50;7393425;19;20042;-80
2022/10/04 07:24:43;;;;;;;10.18;6.90;;;;;;;9.89;82.50;98987.38;7393265;19;20014;-79
2022/10/04 07:27:25;;;;;;;8.63;7.63;;;;;;;9.88;82.42;98993.66;7390069;19;20038;-79
2022/10/04 07:29:57;;;;;;;7.78;5.95;;;;;;;9.86;81.98;98988.47;7385841;19;20014;-80
2022/10/04 07:32:29;;;;;;;9.63;7.03;;;;;;;9.85;81.40;98999.22;7392191;19;20042;-80
2022/10/04 07:35:05;;;;;;;8.95;6.32;;;;;;;9.81;81.70;99006.53;7389702;19;20509;-79
2022/10/04 07:37:36;;;;;;;8.55;6.53;;;;;;;9.89;81.57;99012.00;7395343;19;20095;-79
2022/10/04 07:40:08;;;;;;;7.50;5.68;;;;;;;10.06;81.74;99013.16;7390959;19;20038;-80
2022/10/04 07:42:43;;;;;;;8.18;5.60;;;;;;;10.08;81.25;99019.16;7395057;19;20035;-79
2022/10/04 07:45:25;;;;;;;8.35;5.60;;;;;;;10.10;81.03;99017.19;7390580;19;20018;-79
2022/10/04 07:48:23;;;;;;;7.78;5.93;;;;;;;10.29;81.17;99021.72;7389144;19;20014;-80
2022/10/04 07:51:08;;;;;;;7.70;5.90;;;;;;;10.51;81.47;99015.31;7391642;19;20018;-79
2022/10/04 07:53:46;;;;;;;10.90;5.85;;;;;;;10.75;81.24;99006.09;7394346;19;20391;-79
2022/10/04 07:56:16;;;;;;;9.70;6.75;;;;;;;11.04;81.02;99011.34;7393033;19;20651;-80
2022/10/04 07:59:14;;;;;;;11.52;6.82;;;;;;;11.01;80.19;98995.75;7389725;19;20015;-79
2022/10/04 08:01:54;;;;;;;17.50;8.13;;;;;;;10.99;79.14;99006.47;7388372;19;20018;-79
2022/10/04 08:04:28;;;;;;;12.43;7.80;;;;;;;11.27;78.75;99011.84;7388374;19;20021;-79
2022/10/04 08:07:01;;;;;;;10.40;6.40;;;;;;;11.64;77.58;99016.28;7391475;19;20022;-79
2022/10/04 08:09:56;;;;;;;7.57;5.80;;;;;;;11.59;77.29;99026.50;7391192;19;20489;-79
2022/10/04 08:12:42;;;;;;;7.50;5.47;;;;;;;11.64;77.06;99011.00;7387048;19;20391;-79
2022/10/04 08:15:09;;;;;;;13.00;5.63;;;;;;;11.57;76.92;98999.31;7390549;19;20022;-78
2022/10/04 08:17:57;;;;;;;13.48;6.60;;;;;;;11.34;76.38;98999.66;7389775;19;20366;-78
2022/10/04 08:20:42;;;;;;;10.45;6.10;;;;;;;11.57;76.77;98989.53;7385089;19;20015;-78
2022/10/04 08:23:25;;;;;;;15.68;9.02;;;;;;;11.40;76.26;98991.16;7392500;19;20022;-78
2022/10/04 08:26:10;;;;;;;14.77;8.82;;;;;;;11.46;76.59;98983.59;7388117;19;20015;-78
2022/10/04 08:31:55;;;;;;;8.90;7.10;;;;;;;11.25;77.93;98992.59;7387546;19;20022;-78
2022/10/04 08:34:43;;;;;;;10.77;6.32;;;;;;;11.19;77.76;98983.41;7380397;19;20255;-78
2022/10/04 08:37:47;;;;;;;7.57;5.43;;;;;;;11.03;78.33;98983.16;7381321;19;21028;-78
2022/10/04 08:40:37;;;;;;;10.90;5.68;;;;;;;11.28;78.46;98986.19;7384024;19;20022;-78
2022/10/04 08:43:30;;;;;;;19.10;6.05;;;;;;;11.53;78.53;98982.00;7388581;19;20027;-78
2022/10/04 08:46:18;;;;;;;11.07;5.95;;;;;;;11.55;78.73;98983.53;7385281;19;20477;-78
2022/10/04 08:49:22;;;;;;;8.45;5.18;;;;;;;11.74;77.98;98998.53;7384894;19;20014;-77
2022/10/04 08:52:28;;;;;;;9.70;5.35;;;;;;;11.80;77.85;99005.88;7381986;19;20023;-77
2022/10/04 08:55:33;;;;;;;8.43;5.20;;;;;;;11.66;76.95;99001.06;7383992;19;20014;-77
2022/10/04 08:58:22;;;;;;;12.13;5.32;;;;;;;11.90;75.78;99011.16;7387122;19;20025;-77
2022/10/04 09:00:56;;;;;;;13.18;6.72;;;;;;;11.99;75.50;99002.31;7384567;19;20343;-77
2022/10/04 09:04:08;;;;;;;9.00;5.93;;;;;;;12.19;76.05;99002.16;7386712;19;20035;-77
2022/10/04 09:07:19;;;;;;;14.05;6.28;;;;;;;12.48;76.42;98997.50;7386845;19;20014;-77
2022/10/04 09:10:06;;;;;;;8.60;6.13;;;;;;;12.64;75.13;98996.78;7383459;19;20051;-77
2022/10/04 09:13:11;;;;;;;7.47;5.15;;;;;;;12.70;75.99;98990.03;7384147;19;20711;-77
2022/10/04 09:15:50;;;;;;;11.43;5.38;;;;;;;12.89;75.84;98997.78;7388133;19;20014;-77
2022/10/04 09:18:26;;;;;;;9.02;4.95;;;;;;;12.95;75.47;98991.88;7384892;19;20047;-76
2022/10/04 09:21:00;;;;;;;11.90;5.45;;;;;;;13.08;75.72;98988.78;7385583;19;20026;-77
2022/10/04 09:23:29;;;;;;;10.40;5.35;;;;;;;12.99;75.65;98983.59;7392513;19;20013;-77
2022/10/04 09:26:22;;;;;;;12.27;5.03;;;;;;;13.05;75.63;98978.47;7388607;19;20010;-77
2022/10/04 09:29:06;;;;;;;11.23;5.45;;;;;;;13.18;74.37;98973.56;7391290;19;20838;-77
2022/10/04 09:32:01;;;;;;;8.10;5.15;;;;;;;13.20;75.19;98972.59;7390540;19;20023;-77
2022/10/04 09:34:46;;;;;;;10.52;4.60;;;;;;;13.14;75.07;98974.06;7391381;19;20026;-77
2022/10/04 09:37:31;;;;;;;9.82;4.70;;;;;;;13.38;73.75;98966.25;7396183;19;20359;-78
2022/10/04 09:40:17;;;;;;;9.93;4.55;;;;;;;13.36;73.88;98970.06;7391609;19;20525;-78
2022/10/04 09:43:05;;;;;;;7.63;4.97;;;;;;;13.53;73.54;98971.81;7390203;19;20014;-77
2022/10/04 09:45:51;;;;;;;8.20;4.95;;;;;;;13.58;73.34;98972.13;7395590;19;20018;-77
2022/10/04 09:48:40;;;;;;;8.88;5.10;;;;;;;13.53;72.26;98960.31;7391376;19;20701;-77
2022/10/04 09:51:35;;;;;;;10.00;4.47;;;;;;;13.58;71.89;98964.16;7389604;19;20018;-78
2022/10/04 09:54:18;;;;;;;14.10;4.50;;;;;;;13.79;73.04;98970.88;7392832;19;20007;-78
2022/10/04 09:57:04;;;;;;;12.50;4.68;;;;;;;14.05;71.36;98958.31;7391629;19;20022;-77
2022/10/04 09:59:40;;;;;;;8.63;4.35;;;;;;;14.22;72.26;98974.31;7384500;19;20098;-77
2022/10/04 10:02:41;;;;;;;7.88;4.20;;;;;;;14.30;70.83;98968.16;7392617;19;20022;-77
2022/10/04 10:05:25;;;;;;;13.50;4.88;;;;;;;14.47;70.46;98969.84;7394629;19;20019;-77
2022/10/04 10:08:10;;;;;;;7.95;4.30;;;;;;;14.33;72.06;98967.84;7389921;19;20296;-77
2022/10/04 10:14:07;;;;;;;7.15;4.78;;;;;;;14.36;71.78;98963.00;7393321;19;20046;-76
2022/10/04 10:16:50;;;;;;;10.07;4.20;;;;;;;14.63;71.53;98961.03;7386455;19;20354;-77
2022/10/04 10:19:43;;;;;;;7.72;4.38;;;;;;;14.89;70.83;98961.69;7392326;19;20022;-77
2022/10/04 10:22:31;;;;;;;12.50;4.03;;;;;;;15.03;68.20;98965.47;7392502;19;20014;-77
2022/10/04 10:25:20;;;;;;;12.25;4.82;;;;;;;14.92;68.88;98966.66;7395733;19;20477;-77
2022/10/04 10:28:10;;;;;;;8.55;4.75;;;;;;;14.90;69.41;98971.34;7392342;19;20015;-77
2022/10/04 10:30:55;;;;;;;8.15;3.70;;;;;;;14.92;69.65;98963.16;7390878;19;20022;-76
2022/10/04 10:33:34;;;;;;;16.30;4.78;;;;;;;14.76;69.66;98968.53;7387518;19;20097;-78
2022/10/04 10:36:26;;;;;;;8.85;4.47;;;;;;;14.82;70.02;98962.50;7390314;19;20335;-78
2022/10/04 10:38:56;;;;;;;11.82;3.83;;;;;;;14.93;69.21;98955.03;7392898;19;20857;-77
2022/10/04 10:41:34;;;;;;;7.03;3.17;;;;;;;15.07;66.05;98960.66;7391210;19;20027;-77
2022/10/04 10:44:48;;;;;;;7.68;3.00;;;;;;;15.07;70.35;98966.00;7390834;19;20019;-78
2022/10/04 10:47:20;;;;;;;9.43;3.08;;;;;;;15.08;69.19;98964.97;7387595;19;20007;-77
2022/10/04 10:50:24;;;;;;;8.18;4.18;;;;;;;15.04;69.87;98967.16;7385581;19;20380;-78
2022/10/04 10:53:10;;;;;;;10.80;3.45;;;;;;;14.90;70.14;98952.69;7391501;19;20019;-76
2022/10/04 10:56:16;;;;;;;6.00;3.10;;;;;;;15.03;70.23;98959.31;7392437;19;20018;-77
2022/10/04 10:59:19;;;;;;;7.57;3.17;;;;;;;15.13;69.92;98952.78;7389085;19;20006;-77
2022/10/04 11:02:09;;;;;;;6.78;3.35;;;;;;;15.20;70.53;98950.28;7391606;19;20819;-78
2022/10/04 11:04:53;;;;;;;9.05;2.83;;;;;;;15.35;68.69;98945.09;7388837;19;20476;-77
2022/10/04 11:07:42;;;;;;;7.60;3.10;;;;;;;15.54;68.95;98952.66;7387989;19;20018;-76
2022/10/04 11:10:28;;;;;;;13.35;3.17;;;;;;;15.68;69.53;98952.94;7389881;19;20050;-77
2022/10/04 11:13:32;;;;;;;6.47;3.47;;;;;;;15.66;66.98;98944.28;7390180;19;20010;-77
2022/10/04 11:16:05;;;;;;;6.20;2.90;;;;;;;15.55;68.53;98948.16;7395180;19;20014;-77
2022/10/04 11:19:11;;;;;;;6.78;2.80;;;;;;;15.44;68.79;98935.22;7392316;19;20051;-78
2022/10/04 11:22:11;;;;;;;5.68;2.80;;;;;;;15.60;68.52;98935.13;7383755;19;20018;-77
2022/10/04 11:24:59;;;;;;;7.20;2.90;;;;;;;15.79;67.57;98926.72;7389123;19;20022;-77
2022/10/04 11:27:48;;;;;;;5.68;2.92;;;;;;;15.83;69.22;98927.22;7391347;19;20057;-76
2022/10/04 11:30:25;;;;;;;5.75;2.97;;;;;;;15.99;68.58;98923.63;7392707;19;20039;-76
2022/10/04 11:33:01;;;;;;;6.10;3.17;;;;;;;16.01;69.75;98917.09;7390295;19;20419;-77
2022/10/04 11:36:07;;;;;;;6.65;3.00;;;;;;;15.98;68.30;98908.59;7391797;19;20038;-77
2022/10/04 11:38:50;;;;;;;10.02;3.72;;;;;;;16.23;68.04;98903.91;7386600;19;20026;-77
2022/10/04 11:42:00;;;;;;;6.93;3.05;;;;;;;16.16;67.59;98902.97;7386756;19;20019;-77
2022/10/04 11:44:33;;;;;;;5.65;2.45;;;;;;;16.44;67.43;98895.22;7388831;19;20114;-77
2022/10/04 11:47:17;;;;;;;;;;;;;;;16.70;66.08;98892.16;7385652;19;20612;-74
2022/10/04 11:50:02;;;;;;;9.38;3.08;;;;;;;16.88;66.14;98887.31;7381662;19;19926;-77
2022/10/04 11:52:48;;;;;;;8.77;2.58;;;;;;;17.03;65.94;98883.81;7387139;19;20043;-77
2022/10/04 11:55:30;;;;;;;8.57;3.10;;;;;;;16.94;67.05;98882.25;7384548;19;20473;-77
2022/10/04 11:58:26;;;;;;;5.87;2.90;;;;;;;17.01;65.15;98884.00;7385719;19;20014;-77
2022/10/04 12:01:05;;;;;;;6.97;2.70;;;;;;;16.78;65.51;98884.09;7380738;19;20279;-77
2022/10/04 12:03:56;;;;;;;6.30;2.65;;;;;;;16.92;65.41;98882.44;7390419;19;20015;-77
2022/10/04 12:06:50;;;;;;;3.97;2.67;;;;;;;17.02;65.98;98876.81;7387233;19;20010;-77
2022/10/04 12:09:18;;;;;;;;;;;;;;;17.09;65.63;98870.53;7388550;19;20351;-77
2022/10/04 12:12:49;;;;;;;5.00;2.75;;;;;;;17.30;66.67;98879.66;7382696;19;19922;-77
2022/10/04 12:15:07;;;;;;;5.07;2.58;;;;;;;17.50;60.22;98875.34;7382752;19;20481;-77
2022/10/04 12:17:52;;;;;;;10.65;3.00;;;;;;;17.51;62.19;98866.34;7384705;19;20026;-77
2022/10/04 12:20:43;;;;;;;4.00;2.40;;;;;;;17.29;64.59;98864.63;7386659;19;20025;-77
2022/10/04 12:23:27;;;;;;;5.18;2.47;;;;;;;17.19;64.57;98862.22;7385971;19;20019;-77
2022/10/04 12:26:31;;;;;;;4.93;2.90;;;;;;;17.16;65.43;98870.63;7386176;19;20018;-77
2022/10/04 12:29:01;;;;;;;6.20;2.60;;;;;;;17.07;65.65;98864.53;7379447;19;20012;-77
2022/10/04 12:31:31;;;;;;;6.18;2.40;;;;;;;17.07;65.32;98869.06;7381738;19;20051;-77
2022/10/04 12:34:16;;;;;;;4.90;2.42;;;;;;;17.02;65.79;98860.78;7381893;19;20049;-75
2022/10/04 12:37:09;;;;;;;3.83;2.50;;;;;;;16.98;65.00;98854.97;7385845;19;20032;-77
2022/10/04 12:39:47;;;;;;;14.45;3.22;;;;;;;16.79;66.48;98853.66;7385152;19;20014;-77